HLZ weather

Hamilton International Airport
Hamilton, Waikato Region, New Zealand

Public forecast

Using degrees Celsius for public forecast. Weather courtesy of forecast.io.

Closest aviation weather report (METAR) to Hamilton International Airport

Closest report is Auckland International Airport, 57.6 nm (106.7 km) NNW. Retrieved 2019/10/24 02:30 UTC (28 minutes ago):

NZAA 240230Z AUTO 26026KT 9999 FEW027/// SCT044/// BKN065/// 17/10 Q1009 TEMPO 7000 SHRA BKN014

Closest aviation forecast (TAF) to Hamilton International Airport

Closest forecast is Auckland International Airport, 57.6 nm (106.7 km) NNW. Retrieved 2019-10-24 00:33 UTC (2 hours ago):

TAF NZAA 232331Z 2400/2500 27025G35KT 9999 -SHRA SCT030 BKN040 TEMPO 2400/2408 7000 SHRA BKN014 FM240800 22015G30KT 9999 SCT040 BECMG 2421/2423 26025G35KT